Amber, New York
Current Conditions -  °F | °C
As of 8:54 AM on Wednesday 28 Jan 2015 (Local Time) from KSYR Reporting Station
Scattered Clouds Scattered Clouds  
Wind Chill: -13°   Ceiling: Unl
Heat Index: -13°   Visibility: 10mi
Dew Point: -18°   Wind: 3mph
Humidity: 70%   Direction: NA
Pressure: 30.21"   Gusts: NA
Location:  42.889°N, 76.2819°W
Report Text: KSYR 281354Z VRB03KT 10SM SCT200 M13/M18 A3021 RMK AO2 SLP237 T11331178
Loading
Personal Weather Stations






























Interactive Weather Map New forecast layout! Learn more

10-Day Weather Forecast

Advertisements
Track Severe Weather on mobile